sensor_id;sensor_type;location;lat;lon;timestamp;pressure;altitude;pressure_sealevel;temperature;humidity
20350;BME280;10332;50.208;18.988;2022-07-03T00:00:49;98613.53;;;17.57;94.56
20350;BME280;10332;50.208;18.988;2022-07-03T00:03:16;98607.25;;;17.48;94.79
20350;BME280;10332;50.208;18.988;2022-07-03T00:05:44;98613.34;;;17.49;95.15
20350;BME280;10332;50.208;18.988;2022-07-03T00:08:12;98611.38;;;17.41;95.42
20350;BME280;10332;50.208;18.988;2022-07-03T00:10:39;98600.56;;;17.35;96.04
20350;BME280;10332;50.208;18.988;2022-07-03T00:13:07;98602.06;;;17.27;96.81
20350;BME280;10332;50.208;18.988;2022-07-03T00:15:35;98600.78;;;17.22;96.93
20350;BME280;10332;50.208;18.988;2022-07-03T00:18:03;98607.72;;;17.23;97.17
20350;BME280;10332;50.208;18.988;2022-07-03T00:20:48;98612.44;;;17.19;97.21
20350;BME280;10332;50.208;18.988;2022-07-03T00:23:18;98612.59;;;17.18;97.45
20350;BME280;10332;50.208;18.988;2022-07-03T00:25:49;98618.88;;;17.26;96.96
20350;BME280;10332;50.208;18.988;2022-07-03T00:28:19;98617.88;;;17.18;97.71
20350;BME280;10332;50.208;18.988;2022-07-03T00:30:48;98614.91;;;17.11;97.84
20350;BME280;10332;50.208;18.988;2022-07-03T00:33:18;98611.75;;;17.17;97.65
20350;BME280;10332;50.208;18.988;2022-07-03T00:35:48;98611.84;;;17.16;97.71
20350;BME280;10332;50.208;18.988;2022-07-03T00:38:16;98609.50;;;17.13;97.95
20350;BME280;10332;50.208;18.988;2022-07-03T00:40:44;98611.03;;;17.15;97.89
20350;BME280;10332;50.208;18.988;2022-07-03T00:43:15;98608.81;;;17.11;98.21
20350;BME280;10332;50.208;18.988;2022-07-03T00:45:49;98611.84;;;17.16;97.59
20350;BME280;10332;50.208;18.988;2022-07-03T00:48:20;98613.78;;;17.14;97.16
20350;BME280;10332;50.208;18.988;2022-07-03T00:50:51;98612.44;;;17.19;96.73
20350;BME280;10332;50.208;18.988;2022-07-03T00:53:32;98613.78;;;17.14;96.71
20350;BME280;10332;50.208;18.988;2022-07-03T00:56:04;98615.88;;;17.10;97.65
20350;BME280;10332;50.208;18.988;2022-07-03T00:58:33;98607.09;;;17.00;98.20
20350;BME280;10332;50.208;18.988;2022-07-03T01:01:03;98607.09;;;17.00;97.95
20350;BME280;10332;50.208;18.988;2022-07-03T01:03:35;98596.38;;;16.92;98.64
20350;BME280;10332;50.208;18.988;2022-07-03T01:06:13;98604.72;;;17.07;97.56
20350;BME280;10332;50.208;18.988;2022-07-03T01:08:43;98601.72;;;17.11;97.34
20350;BME280;10332;50.208;18.988;2022-07-03T01:11:38;98598.91;;;17.03;97.09
20350;BME280;10332;50.208;18.988;2022-07-03T01:19:41;98595.81;;;17.28;95.42
20350;BME280;10332;50.208;18.988;2022-07-03T01:22:32;98590.88;;;17.14;95.52
20350;BME280;10332;50.208;18.988;2022-07-03T01:25:13;98589.34;;;17.12;95.89
20350;BME280;10332;50.208;18.988;2022-07-03T01:30:24;98589.91;;;17.15;96.09
20350;BME280;10332;50.208;18.988;2022-07-03T01:33:17;98587.09;;;17.07;96.41
20350;BME280;10332;50.208;18.988;2022-07-03T01:36:05;98578.34;;;17.07;96.61
20350;BME280;10332;50.208;18.988;2022-07-03T01:38:36;98583.09;;;17.13;96.55
20350;BME280;10332;50.208;18.988;2022-07-03T01:41:08;98578.94;;;17.10;96.66
20350;BME280;10332;50.208;18.988;2022-07-03T01:43:46;98581.03;;;17.16;96.21
20350;BME280;10332;50.208;18.988;2022-07-03T01:46:18;98580.78;;;17.19;95.95
20350;BME280;10332;50.208;18.988;2022-07-03T01:48:47;98579.09;;;17.18;96.68
20350;BME280;10332;50.208;18.988;2022-07-03T01:51:16;98574.25;;;17.23;96.33
20350;BME280;10332;50.208;18.988;2022-07-03T01:53:48;98568.72;;;17.26;95.68
20350;BME280;10332;50.208;18.988;2022-07-03T01:56:20;98573.28;;;17.24;95.58
20350;BME280;10332;50.208;18.988;2022-07-03T01:58:49;98563.16;;;17.29;95.18
20350;BME280;10332;50.208;18.988;2022-07-03T02:01:33;98565.50;;;17.23;94.66
20350;BME280;10332;50.208;18.988;2022-07-03T02:04:50;98567.94;;;17.05;95.64
20350;BME280;10332;50.208;18.988;2022-07-03T02:07:42;98556.13;;;16.99;95.70
20350;BME280;10332;50.208;18.988;2022-07-03T02:10:16;98554.84;;;16.94;96.32
20350;BME280;10332;50.208;18.988;2022-07-03T02:12:59;98551.75;;;16.89;96.25
20350;BME280;10332;50.208;18.988;2022-07-03T02:15:33;98571.34;;;16.86;96.93
20350;BME280;10332;50.208;18.988;2022-07-03T02:27:05;98566.38;;;16.93;97.68
20350;BME280;10332;50.208;18.988;2022-07-03T02:29:56;98564.84;;;16.90;97.52
20350;BME280;10332;50.208;18.988;2022-07-03T02:32:32;98558.78;;;16.99;97.24
20350;BME280;10332;50.208;18.988;2022-07-03T02:35:07;98562.25;;;17.00;97.59
20350;BME280;10332;50.208;18.988;2022-07-03T02:37:50;98564.31;;;17.06;97.13
20350;BME280;10332;50.208;18.988;2022-07-03T02:40:27;98559.22;;;17.14;96.98
20350;BME280;10332;50.208;18.988;2022-07-03T02:45:40;98544.88;;;17.07;96.92
20350;BME280;10332;50.208;18.988;2022-07-03T02:48:34;98548.22;;;16.99;97.37
20350;BME280;10332;50.208;18.988;2022-07-03T02:51:10;98547.22;;;16.91;98.22
20350;BME280;10332;50.208;18.988;2022-07-03T02:53:53;98551.69;;;17.00;97.89
20350;BME280;10332;50.208;18.988;2022-07-03T03:08:37;98548.50;;;17.06;98.43
20350;BME280;10332;50.208;18.988;2022-07-03T03:11:22;98534.63;;;17.14;98.04
20350;BME280;10332;50.208;18.988;2022-07-03T03:13:55;98537.44;;;17.22;97.80
20350;BME280;10332;50.208;18.988;2022-07-03T03:16:26;98541.91;;;17.31;97.37
20350;BME280;10332;50.208;18.988;2022-07-03T03:18:54;98528.88;;;17.39;96.90
20350;BME280;10332;50.208;18.988;2022-07-03T03:21:26;98529.69;;;17.40;96.30
20350;BME280;10332;50.208;18.988;2022-07-03T03:23:58;98537.78;;;17.48;96.13
20350;BME280;10332;50.208;18.988;2022-07-03T03:26:26;98540.56;;;17.56;95.93
20350;BME280;10332;50.208;18.988;2022-07-03T03:28:59;98542.38;;;17.65;95.23
20350;BME280;10332;50.208;18.988;2022-07-03T03:31:27;98541.72;;;17.73;95.33
20350;BME280;10332;50.208;18.988;2022-07-03T03:33:55;98536.00;;;17.77;94.72
20350;BME280;10332;50.208;18.988;2022-07-03T03:36:23;98540.19;;;17.80;94.63
20350;BME280;10332;50.208;18.988;2022-07-03T03:38:51;98550.47;;;17.93;93.99
20350;BME280;10332;50.208;18.988;2022-07-03T03:41:18;98553.94;;;18.03;93.60
20350;BME280;10332;50.208;18.988;2022-07-03T03:43:46;98550.06;;;18.07;93.32
20350;BME280;10332;50.208;18.988;2022-07-03T03:46:13;98552.94;;;18.23;92.75
20350;BME280;10332;50.208;18.988;2022-07-03T03:48:42;98550.72;;;18.28;92.51
20350;BME280;10332;50.208;18.988;2022-07-03T03:51:10;98541.81;;;18.29;92.12
20350;BME280;10332;50.208;18.988;2022-07-03T03:53:38;98534.00;;;18.37;91.70
20350;BME280;10332;50.208;18.988;2022-07-03T03:56:12;98532.16;;;18.48;91.35
20350;BME280;10332;50.208;18.988;2022-07-03T03:58:43;98529.78;;;18.54;90.47
20350;BME280;10332;50.208;18.988;2022-07-03T04:01:11;98511.69;;;18.50;91.02
20350;BME280;10332;50.208;18.988;2022-07-03T04:03:40;98514.47;;;18.48;90.85
20350;BME280;10332;50.208;18.988;2022-07-03T04:06:08;98526.69;;;18.59;90.62
20350;BME280;10332;50.208;18.988;2022-07-03T04:08:36;98524.59;;;18.72;90.18
20350;BME280;10332;50.208;18.988;2022-07-03T04:11:03;98529.84;;;18.82;89.49
20350;BME280;10332;50.208;18.988;2022-07-03T04:13:31;98534.28;;;18.91;89.63
20350;BME280;10332;50.208;18.988;2022-07-03T04:15:58;98531.28;;;19.04;89.24
20350;BME280;10332;50.208;18.988;2022-07-03T04:18:26;98530.38;;;19.13;88.27
20350;BME280;10332;50.208;18.988;2022-07-03T04:20:59;98528.78;;;19.02;88.92
20350;BME280;10332;50.208;18.988;2022-07-03T04:23:26;98525.31;;;19.02;88.68
20350;BME280;10332;50.208;18.988;2022-07-03T04:25:53;98527.31;;;18.90;89.25
20350;BME280;10332;50.208;18.988;2022-07-03T04:28:21;98526.75;;;18.86;89.77
20350;BME280;10332;50.208;18.988;2022-07-03T04:30:48;98521.28;;;18.97;89.41
20350;BME280;10332;50.208;18.988;2022-07-03T04:33:16;98530.28;;;19.14;89.04
20350;BME280;10332;50.208;18.988;2022-07-03T04:35:43;98522.63;;;19.29;88.68
20350;BME280;10332;50.208;18.988;2022-07-03T04:38:11;98522.41;;;19.40;88.14
20350;BME280;10332;50.208;18.988;2022-07-03T04:40:38;98517.31;;;19.56;87.71
20350;BME280;10332;50.208;18.988;2022-07-03T04:43:05;98519.31;;;19.72;87.32
20350;BME280;10332;50.208;18.988;2022-07-03T04:45:33;98520.53;;;19.78;86.87
20350;BME280;10332;50.208;18.988;2022-07-03T04:48:00;98517.63;;;19.89;86.36
20350;BME280;10332;50.208;18.988;2022-07-03T04:50:27;98528.66;;;20.02;85.46
20350;BME280;10332;50.208;18.988;2022-07-03T04:52:55;98518.78;;;20.12;85.33
20350;BME280;10332;50.208;18.988;2022-07-03T04:55:22;98520.56;;;20.30;85.21
20350;BME280;10332;50.208;18.988;2022-07-03T04:57:50;98525.03;;;20.47;84.58
20350;BME280;10332;50.208;18.988;2022-07-03T05:00:17;98535.13;;;20.69;84.37
20350;BME280;10332;50.208;18.988;2022-07-03T05:02:44;98536.66;;;20.80;83.49
20350;BME280;10332;50.208;18.988;2022-07-03T05:05:12;98520.94;;;20.87;82.61
20350;BME280;10332;50.208;18.988;2022-07-03T05:07:39;98520.28;;;20.85;82.11
20350;BME280;10332;50.208;18.988;2022-07-03T05:10:07;98515.81;;;20.93;81.89
20350;BME280;10332;50.208;18.988;2022-07-03T05:12:35;98513.47;;;20.90;81.71
20350;BME280;10332;50.208;18.988;2022-07-03T05:15:08;98518.75;;;20.82;82.00
20350;BME280;10332;50.208;18.988;2022-07-03T05:17:36;98520.81;;;20.96;82.05
20350;BME280;10332;50.208;18.988;2022-07-03T05:20:04;98520.16;;;20.94;81.83
20350;BME280;10332;50.208;18.988;2022-07-03T05:22:56;98524.47;;;20.95;81.97
20350;BME280;10332;50.208;18.988;2022-07-03T05:25:24;98525.09;;;20.89;82.50
20350;BME280;10332;50.208;18.988;2022-07-03T05:27:52;98522.16;;;21.01;82.25
20350;BME280;10332;50.208;18.988;2022-07-03T05:30:22;98522.66;;;20.96;82.34
20350;BME280;10332;50.208;18.988;2022-07-03T05:32:51;98520.19;;;21.11;82.33
20350;BME280;10332;50.208;18.988;2022-07-03T05:35:19;98510.44;;;21.19;82.08
20350;BME280;10332;50.208;18.988;2022-07-03T05:37:46;98522.78;;;21.29;81.80
20350;BME280;10332;50.208;18.988;2022-07-03T05:40:14;98519.47;;;21.35;81.20
20350;BME280;10332;50.208;18.988;2022-07-03T05:42:42;98521.50;;;21.49;81.00
20350;BME280;10332;50.208;18.988;2022-07-03T05:45:10;98520.84;;;21.55;80.36
20350;BME280;10332;50.208;18.988;2022-07-03T05:47:37;98527.69;;;21.82;79.78
20350;BME280;10332;50.208;18.988;2022-07-03T05:50:06;98540.34;;;21.96;78.52
20350;BME280;10332;50.208;18.988;2022-07-03T05:52:33;98531.72;;;22.10;78.22
20350;BME280;10332;50.208;18.988;2022-07-03T05:55:00;98533.88;;;22.31;77.48
20350;BME280;10332;50.208;18.988;2022-07-03T05:57:28;98535.81;;;22.62;76.65
20350;BME280;10332;50.208;18.988;2022-07-03T06:00:01;98527.78;;;22.86;75.43
20350;BME280;10332;50.208;18.988;2022-07-03T06:02:28;98537.28;;;23.28;74.27
20350;BME280;10332;50.208;18.988;2022-07-03T06:04:55;98527.53;;;23.74;72.89
20350;BME280;10332;50.208;18.988;2022-07-03T06:07:23;98531.69;;;24.15;72.19
20350;BME280;10332;50.208;18.988;2022-07-03T06:09:50;98529.25;;;24.28;70.51
20350;BME280;10332;50.208;18.988;2022-07-03T06:12:18;98532.19;;;24.56;69.83
20350;BME280;10332;50.208;18.988;2022-07-03T06:14:45;98530.34;;;24.86;68.38
20350;BME280;10332;50.208;18.988;2022-07-03T06:17:12;98526.75;;;24.79;67.68
20350;BME280;10332;50.208;18.988;2022-07-03T06:19:40;98530.63;;;24.91;67.10
20350;BME280;10332;50.208;18.988;2022-07-03T06:22:08;98523.44;;;25.06;67.35
20350;BME280;10332;50.208;18.988;2022-07-03T06:24:35;98530.91;;;25.11;66.90
20350;BME280;10332;50.208;18.988;2022-07-03T06:27:04;98517.97;;;25.29;66.61
20350;BME280;10332;50.208;18.988;2022-07-03T06:29:31;98516.56;;;25.33;65.60
20350;BME280;10332;50.208;18.988;2022-07-03T06:31:59;98515.41;;;25.21;65.70
20350;BME280;10332;50.208;18.988;2022-07-03T06:34:27;98514.16;;;25.38;65.37
20350;BME280;10332;50.208;18.988;2022-07-03T06:36:54;98524.16;;;25.30;65.28
20350;BME280;10332;50.208;18.988;2022-07-03T06:39:22;98517.13;;;25.65;65.04
20350;BME280;10332;50.208;18.988;2022-07-03T06:41:49;98518.69;;;25.74;63.88
20350;BME280;10332;50.208;18.988;2022-07-03T06:44:16;98519.41;;;25.83;63.17
20350;BME280;10332;50.208;18.988;2022-07-03T06:46:44;98519.78;;;25.80;62.70
20350;BME280;10332;50.208;18.988;2022-07-03T06:49:11;98504.72;;;25.57;63.38
20350;BME280;10332;50.208;18.988;2022-07-03T06:51:38;98502.72;;;25.81;62.82
20350;BME280;10332;50.208;18.988;2022-07-03T06:54:06;98509.81;;;25.95;62.36
20350;BME280;10332;50.208;18.988;2022-07-03T06:56:33;98499.59;;;25.98;62.22
20350;BME280;10332;50.208;18.988;2022-07-03T06:59:01;98503.97;;;25.63;62.30
20350;BME280;10332;50.208;18.988;2022-07-03T07:01:29;98494.00;;;25.72;61.89
20350;BME280;10332;50.208;18.988;2022-07-03T07:03:57;98491.31;;;25.72;62.05
20350;BME280;10332;50.208;18.988;2022-07-03T07:06:25;98488.38;;;25.88;61.34
20350;BME280;10332;50.208;18.988;2022-07-03T07:08:52;98488.34;;;26.10;60.69
20350;BME280;10332;50.208;18.988;2022-07-03T07:11:20;98489.00;;;25.90;60.17
20350;BME280;10332;50.208;18.988;2022-07-03T07:13:47;98488.03;;;25.77;61.07
20350;BME280;10332;50.208;18.988;2022-07-03T07:16:14;98488.88;;;25.77;61.60
20350;BME280;10332;50.208;18.988;2022-07-03T07:18:43;98487.41;;;25.53;61.62
20350;BME280;10332;50.208;18.988;2022-07-03T07:21:11;98481.56;;;25.28;61.89
20350;BME280;10332;50.208;18.988;2022-07-03T07:23:38;98483.34;;;25.21;62.48
20350;BME280;10332;50.208;18.988;2022-07-03T07:26:06;98475.41;;;25.28;62.64
20350;BME280;10332;50.208;18.988;2022-07-03T07:28:34;98472.59;;;25.36;62.71
20350;BME280;10332;50.208;18.988;2022-07-03T07:31:02;98476.53;;;25.40;62.41
20350;BME280;10332;50.208;18.988;2022-07-03T07:33:30;98471.34;;;25.53;61.96
20350;BME280;10332;50.208;18.988;2022-07-03T07:35:57;98470.59;;;25.81;60.08
20350;BME280;10332;50.208;18.988;2022-07-03T07:38:24;98472.56;;;26.49;58.53
20350;BME280;10332;50.208;18.988;2022-07-03T07:40:52;98471.94;;;27.23;56.60
20350;BME280;10332;50.208;18.988;2022-07-03T07:43:19;98460.66;;;27.61;55.40
20350;BME280;10332;50.208;18.988;2022-07-03T07:45:47;98474.31;;;28.19;52.23
20350;BME280;10332;50.208;18.988;2022-07-03T07:48:15;98478.16;;;28.89;50.57
20350;BME280;10332;50.208;18.988;2022-07-03T07:50:45;98477.25;;;29.47;48.97
20350;BME280;10332;50.208;18.988;2022-07-03T07:53:12;98474.56;;;29.53;47.85
20350;BME280;10332;50.208;18.988;2022-07-03T07:55:40;98480.78;;;29.85;47.82
20350;BME280;10332;50.208;18.988;2022-07-03T07:58:08;98478.63;;;29.94;47.43
20350;BME280;10332;50.208;18.988;2022-07-03T08:00:36;98466.41;;;29.66;47.40
20350;BME280;10332;50.208;18.988;2022-07-03T08:03:03;98463.03;;;29.39;48.10
20350;BME280;10332;50.208;18.988;2022-07-03T08:05:49;98472.09;;;29.52;47.48
20350;BME280;10332;50.208;18.988;2022-07-03T08:08:17;98466.75;;;29.77;46.73
20350;BME280;10332;50.208;18.988;2022-07-03T08:10:50;98468.81;;;30.31;45.99
20350;BME280;10332;50.208;18.988;2022-07-03T08:13:19;98469.94;;;30.42;45.60
20350;BME280;10332;50.208;18.988;2022-07-03T08:15:47;98466.19;;;30.43;46.02
20350;BME280;10332;50.208;18.988;2022-07-03T08:18:14;98465.94;;;30.88;45.92
20350;BME280;10332;50.208;18.988;2022-07-03T08:20:41;98473.78;;;31.26;43.86
20350;BME280;10332;50.208;18.988;2022-07-03T08:23:09;98465.00;;;31.30;43.43
20350;BME280;10332;50.208;18.988;2022-07-03T08:25:36;98474.13;;;31.59;42.98
20350;BME280;10332;50.208;18.988;2022-07-03T08:28:04;98479.44;;;31.36;42.28
20350;BME280;10332;50.208;18.988;2022-07-03T08:30:31;98468.25;;;31.51;42.55
20350;BME280;10332;50.208;18.988;2022-07-03T08:32:59;98467.97;;;31.41;42.43
20350;BME280;10332;50.208;18.988;2022-07-03T08:35:27;98471.53;;;31.23;42.35
20350;BME280;10332;50.208;18.988;2022-07-03T08:37:55;98476.69;;;31.24;42.37
20350;BME280;10332;50.208;18.988;2022-07-03T08:40:23;98468.28;;;31.32;42.73
20350;BME280;10332;50.208;18.988;2022-07-03T08:42:55;98471.00;;;31.74;42.38
20350;BME280;10332;50.208;18.988;2022-07-03T08:45:24;98467.91;;;32.01;42.21
20350;BME280;10332;50.208;18.988;2022-07-03T08:47:57;98462.97;;;31.98;41.77
20350;BME280;10332;50.208;18.988;2022-07-03T08:50:26;98464.97;;;32.02;40.85
20350;BME280;10332;50.208;18.988;2022-07-03T08:52:53;98466.88;;;32.13;40.97
20350;BME280;10332;50.208;18.988;2022-07-03T08:55:20;98468.16;;;32.11;41.32
20350;BME280;10332;50.208;18.988;2022-07-03T08:57:48;98465.38;;;32.41;40.38
20350;BME280;10332;50.208;18.988;2022-07-03T09:00:18;98464.50;;;32.17;40.07
20350;BME280;10332;50.208;18.988;2022-07-03T09:02:48;98469.09;;;32.28;40.31
20350;BME280;10332;50.208;18.988;2022-07-03T09:05:17;98465.34;;;32.29;40.08
20350;BME280;10332;50.208;18.988;2022-07-03T09:07:46;98459.94;;;32.17;40.16
20350;BME280;10332;50.208;18.988;2022-07-03T09:10:16;98462.88;;;32.28;40.25
20350;BME280;10332;50.208;18.988;2022-07-03T09:12:46;98459.94;;;32.29;40.31
20350;BME280;10332;50.208;18.988;2022-07-03T09:15:14;98466.09;;;32.36;40.08
20350;BME280;10332;50.208;18.988;2022-07-03T09:18:05;98464.03;;;32.67;39.79
20350;BME280;10332;50.208;18.988;2022-07-03T09:20:40;98460.06;;;32.58;40.15
20350;BME280;10332;50.208;18.988;2022-07-03T09:23:19;98463.78;;;32.92;40.03
20350;BME280;10332;50.208;18.988;2022-07-03T09:26:02;98455.34;;;33.17;40.09
20350;BME280;10332;50.208;18.988;2022-07-03T09:28:51;98460.22;;;33.43;38.42
20350;BME280;10332;50.208;18.988;2022-07-03T09:31:24;98458.03;;;33.74;37.78
20350;BME280;10332;50.208;18.988;2022-07-03T09:34:05;98458.81;;;34.03;36.81
20350;BME280;10332;50.208;18.988;2022-07-03T09:36:49;98456.44;;;34.06;37.07
20350;BME280;10332;50.208;18.988;2022-07-03T09:39:30;98451.16;;;34.17;36.79
20350;BME280;10332;50.208;18.988;2022-07-03T09:47:18;98453.34;;;33.52;37.77
20350;BME280;10332;50.208;18.988;2022-07-03T09:54:58;98449.19;;;34.12;37.60
20350;BME280;10332;50.208;18.988;2022-07-03T09:57:29;98439.44;;;34.33;36.80
20350;BME280;10332;50.208;18.988;2022-07-03T10:00:19;98439.91;;;34.63;36.05
20350;BME280;10332;50.208;18.988;2022-07-03T10:03:05;98441.53;;;34.86;36.24
20350;BME280;10332;50.208;18.988;2022-07-03T10:05:38;98436.88;;;34.82;36.26
20350;BME280;10332;50.208;18.988;2022-07-03T10:08:14;98433.41;;;34.64;35.75
20350;BME280;10332;50.208;18.988;2022-07-03T10:10:48;98437.94;;;34.59;35.89
20350;BME280;10332;50.208;18.988;2022-07-03T10:13:16;98430.44;;;34.44;35.68
20350;BME280;10332;50.208;18.988;2022-07-03T10:15:44;98431.38;;;34.77;35.15
20350;BME280;10332;50.208;18.988;2022-07-03T10:18:13;98422.13;;;35.16;34.76
20350;BME280;10332;50.208;18.988;2022-07-03T10:20:49;98416.63;;;35.11;34.43
20350;BME280;10332;50.208;18.988;2022-07-03T10:23:22;98424.72;;;35.33;34.48
20350;BME280;10332;50.208;18.988;2022-07-03T10:25:50;98423.09;;;35.05;34.34
20350;BME280;10332;50.208;18.988;2022-07-03T10:28:19;98418.25;;;35.12;34.41
20350;BME280;10332;50.208;18.988;2022-07-03T10:30:48;98424.03;;;35.43;34.85
20350;BME280;10332;50.208;18.988;2022-07-03T10:33:16;98415.50;;;35.34;33.77
20350;BME280;10332;50.208;18.988;2022-07-03T10:35:55;98419.34;;;35.65;34.56
20350;BME280;10332;50.208;18.988;2022-07-03T10:41:12;98414.31;;;36.16;33.66
20350;BME280;10332;50.208;18.988;2022-07-03T10:44:02;98412.69;;;36.15;34.17
20350;BME280;10332;50.208;18.988;2022-07-03T10:46:48;98406.97;;;35.79;33.27
20350;BME280;10332;50.208;18.988;2022-07-03T10:49:20;98411.84;;;35.77;33.31
20350;BME280;10332;50.208;18.988;2022-07-03T10:52:03;98409.28;;;35.66;33.43
20350;BME280;10332;50.208;18.988;2022-07-03T10:54:49;98397.72;;;35.80;32.95
20350;BME280;10332;50.208;18.988;2022-07-03T10:57:17;98399.94;;;36.26;33.15
20350;BME280;10332;50.208;18.988;2022-07-03T11:02:37;98405.06;;;35.48;32.91
20350;BME280;10332;50.208;18.988;2022-07-03T11:18:14;98381.84;;;36.42;32.41
20350;BME280;10332;50.208;18.988;2022-07-03T11:41:23;98362.91;;;36.20;31.54
20350;BME280;10332;50.208;18.988;2022-07-03T11:44:00;98361.56;;;36.17;32.29
20350;BME280;10332;50.208;18.988;2022-07-03T11:46:34;98365.31;;;36.06;31.33
20350;BME280;10332;50.208;18.988;2022-07-03T11:49:13;98367.97;;;35.96;31.66
20350;BME280;10332;50.208;18.988;2022-07-03T11:52:13;98362.78;;;35.62;32.33
20350;BME280;10332;50.208;18.988;2022-07-03T11:54:52;98361.84;;;35.83;32.25
20350;BME280;10332;50.208;18.988;2022-07-03T11:57:20;98352.88;;;35.83;32.03
20350;BME280;10332;50.208;18.988;2022-07-03T11:59:51;98348.41;;;35.99;31.50
20350;BME280;10332;50.208;18.988;2022-07-03T12:02:21;98352.16;;;35.88;32.13
20350;BME280;10332;50.208;18.988;2022-07-03T12:04:48;98347.91;;;35.70;31.76
20350;BME280;10332;50.208;18.988;2022-07-03T12:07:16;98344.19;;;35.44;32.28
20350;BME280;10332;50.208;18.988;2022-07-03T12:09:44;98347.66;;;35.12;32.96
20350;BME280;10332;50.208;18.988;2022-07-03T12:12:11;98346.63;;;35.18;32.58
20350;BME280;10332;50.208;18.988;2022-07-03T12:17:19;98353.16;;;35.17;32.95
20350;BME280;10332;50.208;18.988;2022-07-03T12:22:35;98344.09;;;34.85;33.00
20350;BME280;10332;50.208;18.988;2022-07-03T12:25:11;98340.56;;;34.84;33.22
20350;BME280;10332;50.208;18.988;2022-07-03T12:27:44;98338.63;;;34.80;34.21
20350;BME280;10332;50.208;18.988;2022-07-03T12:30:19;98333.16;;;34.53;33.70
20350;BME280;10332;50.208;18.988;2022-07-03T12:32:54;98337.63;;;34.64;33.91
20350;BME280;10332;50.208;18.988;2022-07-03T12:35:27;98326.00;;;34.90;34.25
20350;BME280;10332;50.208;18.988;2022-07-03T12:37:56;98332.44;;;35.11;33.71
20350;BME280;10332;50.208;18.988;2022-07-03T12:40:24;98326.28;;;35.21;33.47
20350;BME280;10332;50.208;18.988;2022-07-03T12:42:54;98325.47;;;35.20;33.46
20350;BME280;10332;50.208;18.988;2022-07-03T12:45:27;98324.91;;;35.18;33.42
20350;BME280;10332;50.208;18.988;2022-07-03T12:48:08;98318.19;;;35.26;32.66
20350;BME280;10332;50.208;18.988;2022-07-03T12:50:49;98313.41;;;35.38;33.57
20350;BME280;10332;50.208;18.988;2022-07-03T12:53:30;98315.75;;;35.24;32.78
20350;BME280;10332;50.208;18.988;2022-07-03T12:56:07;98317.00;;;35.44;33.12
20350;BME280;10332;50.208;18.988;2022-07-03T12:58:39;98311.13;;;35.57;33.07
20350;BME280;10332;50.208;18.988;2022-07-03T13:01:33;98306.50;;;35.58;32.55
20350;BME280;10332;50.208;18.988;2022-07-03T13:04:01;98301.59;;;35.54;32.37
20350;BME280;10332;50.208;18.988;2022-07-03T13:06:29;98303.38;;;35.39;32.63
20350;BME280;10332;50.208;18.988;2022-07-03T13:09:05;98292.72;;;35.32;33.03
20350;BME280;10332;50.208;18.988;2022-07-03T13:11:36;98285.00;;;35.51;32.98
20350;BME280;10332;50.208;18.988;2022-07-03T13:14:17;98292.09;;;35.52;32.77
20350;BME280;10332;50.208;18.988;2022-07-03T13:16:48;98292.59;;;35.49;33.10
20350;BME280;10332;50.208;18.988;2022-07-03T13:19:21;98286.81;;;35.40;32.81
20350;BME280;10332;50.208;18.988;2022-07-03T13:21:54;98286.50;;;35.37;32.88
20350;BME280;10332;50.208;18.988;2022-07-03T13:24:22;98285.94;;;35.35;32.56
20350;BME280;10332;50.208;18.988;2022-07-03T13:26:52;98281.69;;;35.12;32.74
20350;BME280;10332;50.208;18.988;2022-07-03T13:29:22;98292.03;;;35.15;32.52
20350;BME280;10332;50.208;18.988;2022-07-03T13:31:53;98288.50;;;35.14;32.80
20350;BME280;10332;50.208;18.988;2022-07-03T13:34:21;98280.25;;;35.04;32.71
20350;BME280;10332;50.208;18.988;2022-07-03T13:36:49;98277.72;;;34.92;32.89
20350;BME280;10332;50.208;18.988;2022-07-03T13:39:17;98277.88;;;34.86;32.86
20350;BME280;10332;50.208;18.988;2022-07-03T13:41:44;98278.41;;;34.83;32.74
20350;BME280;10332;50.208;18.988;2022-07-03T13:44:12;98268.66;;;34.60;32.77
20350;BME280;10332;50.208;18.988;2022-07-03T13:46:39;98271.16;;;34.61;33.58
20350;BME280;10332;50.208;18.988;2022-07-03T13:49:07;98263.81;;;34.62;33.50
20350;BME280;10332;50.208;18.988;2022-07-03T13:51:34;98258.03;;;34.53;33.39
20350;BME280;10332;50.208;18.988;2022-07-03T13:54:01;98255.78;;;34.45;33.87
20350;BME280;10332;50.208;18.988;2022-07-03T13:56:29;98264.78;;;34.29;33.92
20350;BME280;10332;50.208;18.988;2022-07-03T13:58:56;98269.09;;;34.25;33.87
20350;BME280;10332;50.208;18.988;2022-07-03T14:01:23;98253.75;;;34.13;34.33
20350;BME280;10332;50.208;18.988;2022-07-03T14:03:51;98262.44;;;33.94;34.59
20350;BME280;10332;50.208;18.988;2022-07-03T14:06:18;98257.41;;;34.02;34.63
20350;BME280;10332;50.208;18.988;2022-07-03T14:08:46;98251.09;;;33.97;34.39
20350;BME280;10332;50.208;18.988;2022-07-03T14:11:13;98259.88;;;33.87;33.99
20350;BME280;10332;50.208;18.988;2022-07-03T14:13:42;98257.38;;;33.80;33.66
20350;BME280;10332;50.208;18.988;2022-07-03T14:16:11;98259.16;;;33.53;34.07
20350;BME280;10332;50.208;18.988;2022-07-03T14:18:39;98252.59;;;33.49;34.67
20350;BME280;10332;50.208;18.988;2022-07-03T14:21:07;98251.03;;;33.53;34.61
20350;BME280;10332;50.208;18.988;2022-07-03T14:23:34;98250.94;;;33.48;34.21
20350;BME280;10332;50.208;18.988;2022-07-03T14:26:02;98249.78;;;33.27;34.33
20350;BME280;10332;50.208;18.988;2022-07-03T14:28:29;98243.06;;;33.13;34.37
20350;BME280;10332;50.208;18.988;2022-07-03T14:31:18;98245.84;;;32.84;34.84
20350;BME280;10332;50.208;18.988;2022-07-03T14:33:52;98233.00;;;32.80;34.72
20350;BME280;10332;50.208;18.988;2022-07-03T14:36:21;98228.84;;;32.89;35.23
20350;BME280;10332;50.208;18.988;2022-07-03T14:39:08;98234.22;;;33.00;35.55